sensor_id;sensor_type;location;lat;lon;timestamp;P1;durP1;ratioP1;P2;durP2;ratioP2
15340;SDS011;7770;52.158;5.372;2023-06-22T00:01:32;16.10;;;14.50;;
15340;SDS011;7770;52.158;5.372;2023-06-22T00:04:18;15.47;;;13.97;;
15340;SDS011;7770;52.158;5.372;2023-06-22T00:07:04;14.97;;;13.57;;
15340;SDS011;7770;52.158;5.372;2023-06-22T00:09:50;15.00;;;13.47;;
15340;SDS011;7770;52.158;5.372;2023-06-22T00:12:37;14.03;;;12.73;;
15340;SDS011;7770;52.158;5.372;2023-06-22T00:15:23;14.53;;;13.00;;
15340;SDS011;7770;52.158;5.372;2023-06-22T00:18:10;13.67;;;12.37;;
15340;SDS011;7770;52.158;5.372;2023-06-22T00:20:57;15.27;;;13.67;;
15340;SDS011;7770;52.158;5.372;2023-06-22T00:23:43;15.23;;;13.67;;
15340;SDS011;7770;52.158;5.372;2023-06-22T00:26:29;15.33;;;13.83;;
15340;SDS011;7770;52.158;5.372;2023-06-22T00:29:16;14.80;;;13.23;;
15340;SDS011;7770;52.158;5.372;2023-06-22T00:32:03;16.40;;;14.93;;
15340;SDS011;7770;52.158;5.372;2023-06-22T00:34:50;14.80;;;13.30;;
15340;SDS011;7770;52.158;5.372;2023-06-22T00:37:36;15.40;;;13.97;;
15340;SDS011;7770;52.158;5.372;2023-06-22T00:40:23;15.57;;;14.03;;
15340;SDS011;7770;52.158;5.372;2023-06-22T00:43:09;14.97;;;13.57;;
15340;SDS011;7770;52.158;5.372;2023-06-22T00:45:55;15.40;;;13.90;;
15340;SDS011;7770;52.158;5.372;2023-06-22T00:48:42;14.87;;;13.30;;
15340;SDS011;7770;52.158;5.372;2023-06-22T00:51:29;15.63;;;14.10;;
15340;SDS011;7770;52.158;5.372;2023-06-22T00:54:15;16.47;;;14.87;;
15340;SDS011;7770;52.158;5.372;2023-06-22T00:57:01;15.90;;;14.30;;
15340;SDS011;7770;52.158;5.372;2023-06-22T00:59:48;15.43;;;13.93;;
15340;SDS011;7770;52.158;5.372;2023-06-22T01:02:34;15.27;;;13.93;;
15340;SDS011;7770;52.158;5.372;2023-06-22T01:05:22;15.70;;;14.17;;
15340;SDS011;7770;52.158;5.372;2023-06-22T01:08:27;16.23;;;14.53;;
15340;SDS011;7770;52.158;5.372;2023-06-22T01:11:38;14.83;;;13.40;;
15340;SDS011;7770;52.158;5.372;2023-06-22T01:14:56;15.93;;;14.37;;
15340;SDS011;7770;52.158;5.372;2023-06-22T01:17:50;15.47;;;13.97;;
15340;SDS011;7770;52.158;5.372;2023-06-22T01:20:39;15.33;;;13.87;;
15340;SDS011;7770;52.158;5.372;2023-06-22T01:29:55;15.03;;;13.47;;
15340;SDS011;7770;52.158;5.372;2023-06-22T01:32:45;15.63;;;14.13;;
15340;SDS011;7770;52.158;5.372;2023-06-22T01:35:33;15.97;;;14.17;;
15340;SDS011;7770;52.158;5.372;2023-06-22T01:38:19;16.43;;;14.73;;
15340;SDS011;7770;52.158;5.372;2023-06-22T01:41:06;17.23;;;15.53;;
15340;SDS011;7770;52.158;5.372;2023-06-22T01:43:53;17.37;;;15.77;;
15340;SDS011;7770;52.158;5.372;2023-06-22T01:46:40;19.33;;;14.93;;
15340;SDS011;7770;52.158;5.372;2023-06-22T01:49:26;16.40;;;14.83;;
15340;SDS011;7770;52.158;5.372;2023-06-22T01:52:13;17.83;;;15.97;;
15340;SDS011;7770;52.158;5.372;2023-06-22T01:55:00;17.50;;;15.70;;
15340;SDS011;7770;52.158;5.372;2023-06-22T01:57:46;17.40;;;15.70;;
15340;SDS011;7770;52.158;5.372;2023-06-22T02:00:33;16.57;;;15.17;;
15340;SDS011;7770;52.158;5.372;2023-06-22T02:03:24;17.43;;;15.63;;
15340;SDS011;7770;52.158;5.372;2023-06-22T02:06:27;16.07;;;14.57;;
15340;SDS011;7770;52.158;5.372;2023-06-22T02:09:23;13.97;;;12.57;;
15340;SDS011;7770;52.158;5.372;2023-06-22T02:12:11;12.37;;;11.20;;
15340;SDS011;7770;52.158;5.372;2023-06-22T02:14:59;13.63;;;12.43;;
15340;SDS011;7770;52.158;5.372;2023-06-22T02:17:46;14.03;;;12.77;;
15340;SDS011;7770;52.158;5.372;2023-06-22T02:20:36;15.40;;;13.90;;
15340;SDS011;7770;52.158;5.372;2023-06-22T02:23:22;17.97;;;16.17;;
15340;SDS011;7770;52.158;5.372;2023-06-22T02:26:08;21.13;;;19.13;;
15340;SDS011;7770;52.158;5.372;2023-06-22T02:28:55;20.90;;;18.70;;
15340;SDS011;7770;52.158;5.372;2023-06-22T02:31:41;20.20;;;18.20;;
15340;SDS011;7770;52.158;5.372;2023-06-22T02:34:27;19.47;;;17.57;;
15340;SDS011;7770;52.158;5.372;2023-06-22T02:37:13;21.80;;;19.70;;
15340;SDS011;7770;52.158;5.372;2023-06-22T02:40:00;18.33;;;16.63;;
15340;SDS011;7770;52.158;5.372;2023-06-22T02:42:46;15.50;;;13.97;;
15340;SDS011;7770;52.158;5.372;2023-06-22T02:45:32;13.77;;;12.47;;
15340;SDS011;7770;52.158;5.372;2023-06-22T02:48:18;13.90;;;12.60;;
15340;SDS011;7770;52.158;5.372;2023-06-22T02:51:05;14.53;;;13.13;;
15340;SDS011;7770;52.158;5.372;2023-06-22T02:53:52;14.30;;;13.00;;
15340;SDS011;7770;52.158;5.372;2023-06-22T02:56:42;18.27;;;16.67;;
15340;SDS011;7770;52.158;5.372;2023-06-22T02:59:31;20.67;;;18.67;;
15340;SDS011;7770;52.158;5.372;2023-06-22T03:02:17;20.23;;;18.33;;
15340;SDS011;7770;52.158;5.372;2023-06-22T03:05:06;21.27;;;19.27;;
15340;SDS011;7770;52.158;5.372;2023-06-22T03:07:58;20.70;;;18.60;;
15340;SDS011;7770;52.158;5.372;2023-06-22T03:10:44;21.10;;;19.00;;
15340;SDS011;7770;52.158;5.372;2023-06-22T03:13:30;19.97;;;18.17;;
15340;SDS011;7770;52.158;5.372;2023-06-22T03:16:16;20.47;;;18.47;;
15340;SDS011;7770;52.158;5.372;2023-06-22T03:19:03;20.17;;;18.17;;
15340;SDS011;7770;52.158;5.372;2023-06-22T03:21:49;16.67;;;15.07;;
15340;SDS011;7770;52.158;5.372;2023-06-22T03:24:35;16.53;;;15.03;;
15340;SDS011;7770;52.158;5.372;2023-06-22T03:27:22;15.23;;;13.63;;
15340;SDS011;7770;52.158;5.372;2023-06-22T03:30:09;15.17;;;13.77;;
15340;SDS011;7770;52.158;5.372;2023-06-22T03:32:57;15.13;;;13.63;;
15340;SDS011;7770;52.158;5.372;2023-06-22T03:35:43;15.67;;;14.20;;
15340;SDS011;7770;52.158;5.372;2023-06-22T03:38:29;16.90;;;15.30;;
15340;SDS011;7770;52.158;5.372;2023-06-22T03:41:15;19.07;;;17.23;;
15340;SDS011;7770;52.158;5.372;2023-06-22T03:44:01;20.17;;;17.77;;
15340;SDS011;7770;52.158;5.372;2023-06-22T03:46:47;22.20;;;20.10;;
15340;SDS011;7770;52.158;5.372;2023-06-22T03:49:33;19.80;;;17.80;;
15340;SDS011;7770;52.158;5.372;2023-06-22T03:52:19;22.40;;;20.20;;
15340;SDS011;7770;52.158;5.372;2023-06-22T03:55:07;22.90;;;20.57;;
15340;SDS011;7770;52.158;5.372;2023-06-22T03:57:53;23.40;;;21.20;;
15340;SDS011;7770;52.158;5.372;2023-06-22T04:00:42;24.17;;;21.93;;
15340;SDS011;7770;52.158;5.372;2023-06-22T04:03:28;24.03;;;21.73;;
15340;SDS011;7770;52.158;5.372;2023-06-22T04:06:14;24.47;;;22.17;;
15340;SDS011;7770;52.158;5.372;2023-06-22T04:09:00;23.63;;;21.33;;
15340;SDS011;7770;52.158;5.372;2023-06-22T04:11:46;24.30;;;22.03;;
15340;SDS011;7770;52.158;5.372;2023-06-22T04:14:32;24.33;;;21.93;;
15340;SDS011;7770;52.158;5.372;2023-06-22T04:17:18;24.30;;;22.10;;
15340;SDS011;7770;52.158;5.372;2023-06-22T04:20:04;26.47;;;23.83;;
15340;SDS011;7770;52.158;5.372;2023-06-22T04:22:52;24.83;;;22.50;;
15340;SDS011;7770;52.158;5.372;2023-06-22T04:25:39;25.53;;;23.13;;
15340;SDS011;7770;52.158;5.372;2023-06-22T04:28:25;25.97;;;23.57;;
15340;SDS011;7770;52.158;5.372;2023-06-22T04:31:11;26.83;;;24.27;;
15340;SDS011;7770;52.158;5.372;2023-06-22T04:33:57;26.77;;;23.97;;
15340;SDS011;7770;52.158;5.372;2023-06-22T04:36:51;26.97;;;24.20;;
15340;SDS011;7770;52.158;5.372;2023-06-22T04:39:37;27.30;;;24.50;;
15340;SDS011;7770;52.158;5.372;2023-06-22T04:42:25;27.80;;;24.83;;
15340;SDS011;7770;52.158;5.372;2023-06-22T04:45:12;27.77;;;25.00;;
15340;SDS011;7770;52.158;5.372;2023-06-22T04:47:58;28.33;;;25.37;;
15340;SDS011;7770;52.158;5.372;2023-06-22T04:50:44;30.20;;;27.13;;
15340;SDS011;7770;52.158;5.372;2023-06-22T04:53:31;29.70;;;26.80;;
15340;SDS011;7770;52.158;5.372;2023-06-22T04:56:17;28.63;;;25.93;;
15340;SDS011;7770;52.158;5.372;2023-06-22T04:59:03;28.43;;;25.83;;
15340;SDS011;7770;52.158;5.372;2023-06-22T05:01:49;29.77;;;26.97;;
15340;SDS011;7770;52.158;5.372;2023-06-22T05:04:36;28.90;;;26.00;;
15340;SDS011;7770;52.158;5.372;2023-06-22T05:07:26;30.17;;;27.37;;
15340;SDS011;7770;52.158;5.372;2023-06-22T05:10:12;29.70;;;27.00;;
15340;SDS011;7770;52.158;5.372;2023-06-22T05:12:58;30.70;;;27.80;;
15340;SDS011;7770;52.158;5.372;2023-06-22T05:15:44;31.73;;;28.73;;
15340;SDS011;7770;52.158;5.372;2023-06-22T05:18:33;32.77;;;29.27;;
15340;SDS011;7770;52.158;5.372;2023-06-22T05:21:23;31.83;;;28.70;;
15340;SDS011;7770;52.158;5.372;2023-06-22T05:24:11;32.10;;;28.87;;
15340;SDS011;7770;52.158;5.372;2023-06-22T05:26:57;31.97;;;29.00;;
15340;SDS011;7770;52.158;5.372;2023-06-22T05:29:43;30.47;;;27.57;;
15340;SDS011;7770;52.158;5.372;2023-06-22T05:32:29;31.83;;;28.93;;
15340;SDS011;7770;52.158;5.372;2023-06-22T05:35:15;32.20;;;29.07;;
15340;SDS011;7770;52.158;5.372;2023-06-22T05:38:01;30.97;;;28.17;;
15340;SDS011;7770;52.158;5.372;2023-06-22T05:40:47;33.13;;;30.07;;
15340;SDS011;7770;52.158;5.372;2023-06-22T05:43:33;34.33;;;31.07;;
15340;SDS011;7770;52.158;5.372;2023-06-22T05:46:19;34.53;;;31.50;;
15340;SDS011;7770;52.158;5.372;2023-06-22T05:49:05;33.83;;;30.83;;
15340;SDS011;7770;52.158;5.372;2023-06-22T05:51:51;34.80;;;31.80;;
15340;SDS011;7770;52.158;5.372;2023-06-22T05:54:37;35.57;;;32.27;;
15340;SDS011;7770;52.158;5.372;2023-06-22T05:57:24;35.77;;;32.40;;
15340;SDS011;7770;52.158;5.372;2023-06-22T06:00:10;36.50;;;33.27;;
15340;SDS011;7770;52.158;5.372;2023-06-22T06:02:57;36.23;;;33.00;;
15340;SDS011;7770;52.158;5.372;2023-06-22T06:05:48;37.23;;;33.80;;
15340;SDS011;7770;52.158;5.372;2023-06-22T06:08:34;36.00;;;32.60;;
15340;SDS011;7770;52.158;5.372;2023-06-22T06:11:21;35.60;;;32.40;;
15340;SDS011;7770;52.158;5.372;2023-06-22T06:14:07;36.27;;;33.00;;
15340;SDS011;7770;52.158;5.372;2023-06-22T06:16:53;32.43;;;29.53;;
15340;SDS011;7770;52.158;5.372;2023-06-22T06:19:39;30.97;;;28.43;;
15340;SDS011;7770;52.158;5.372;2023-06-22T06:22:25;31.08;;;28.17;;
15340;SDS011;7770;52.158;5.372;2023-06-22T06:25:11;31.05;;;28.27;;
15340;SDS011;7770;52.158;5.372;2023-06-22T06:28:01;31.80;;;28.90;;
15340;SDS011;7770;52.158;5.372;2023-06-22T06:30:47;31.57;;;28.87;;
15340;SDS011;7770;52.158;5.372;2023-06-22T06:33:33;29.70;;;27.10;;
15340;SDS011;7770;52.158;5.372;2023-06-22T06:36:19;30.47;;;27.87;;
15340;SDS011;7770;52.158;5.372;2023-06-22T06:39:05;30.40;;;27.60;;
15340;SDS011;7770;52.158;5.372;2023-06-22T06:41:51;30.93;;;27.90;;
15340;SDS011;7770;52.158;5.372;2023-06-22T06:44:37;30.03;;;27.43;;
15340;SDS011;7770;52.158;5.372;2023-06-22T06:47:23;30.40;;;27.63;;
15340;SDS011;7770;52.158;5.372;2023-06-22T06:50:10;31.83;;;28.97;;
15340;SDS011;7770;52.158;5.372;2023-06-22T06:52:56;30.80;;;27.90;;
15340;SDS011;7770;52.158;5.372;2023-06-22T06:55:44;33.53;;;30.33;;
15340;SDS011;7770;52.158;5.372;2023-06-22T06:58:31;31.93;;;28.97;;
15340;SDS011;7770;52.158;5.372;2023-06-22T07:01:17;30.87;;;28.17;;
15340;SDS011;7770;52.158;5.372;2023-06-22T07:04:05;30.13;;;27.63;;
15340;SDS011;7770;52.158;5.372;2023-06-22T07:06:51;31.03;;;28.17;;
15340;SDS011;7770;52.158;5.372;2023-06-22T07:09:36;29.33;;;26.60;;
15340;SDS011;7770;52.158;5.372;2023-06-22T07:12:23;28.08;;;25.52;;
15340;SDS011;7770;52.158;5.372;2023-06-22T07:15:09;26.83;;;24.52;;
15340;SDS011;7770;52.158;5.372;2023-06-22T07:17:57;29.60;;;26.95;;
15340;SDS011;7770;52.158;5.372;2023-06-22T07:20:43;27.23;;;24.92;;
15340;SDS011;7770;52.158;5.372;2023-06-22T07:23:29;28.33;;;26.02;;
15340;SDS011;7770;52.158;5.372;2023-06-22T07:26:15;27.20;;;24.92;;
15340;SDS011;7770;52.158;5.372;2023-06-22T07:29:02;25.52;;;23.33;;
15340;SDS011;7770;52.158;5.372;2023-06-22T07:31:48;23.77;;;21.70;;
15340;SDS011;7770;52.158;5.372;2023-06-22T07:34:36;22.50;;;20.60;;
15340;SDS011;7770;52.158;5.372;2023-06-22T07:37:22;22.23;;;20.27;;
15340;SDS011;7770;52.158;5.372;2023-06-22T07:40:08;23.05;;;21.15;;
15340;SDS011;7770;52.158;5.372;2023-06-22T07:42:55;22.55;;;20.25;;
15340;SDS011;7770;52.158;5.372;2023-06-22T07:45:44;19.35;;;17.70;;
15340;SDS011;7770;52.158;5.372;2023-06-22T07:48:37;20.33;;;18.58;;
15340;SDS011;7770;52.158;5.372;2023-06-22T07:51:24;21.80;;;19.77;;
15340;SDS011;7770;52.158;5.372;2023-06-22T07:54:10;20.83;;;19.13;;
15340;SDS011;7770;52.158;5.372;2023-06-22T07:56:57;19.80;;;18.20;;
15340;SDS011;7770;52.158;5.372;2023-06-22T07:59:43;18.83;;;17.23;;
15340;SDS011;7770;52.158;5.372;2023-06-22T08:02:28;17.88;;;16.27;;
15340;SDS011;7770;52.158;5.372;2023-06-22T08:05:15;18.70;;;17.13;;
15340;SDS011;7770;52.158;5.372;2023-06-22T08:08:02;16.92;;;15.52;;
15340;SDS011;7770;52.158;5.372;2023-06-22T08:10:49;17.05;;;15.60;;
15340;SDS011;7770;52.158;5.372;2023-06-22T08:13:35;18.02;;;16.52;;
15340;SDS011;7770;52.158;5.372;2023-06-22T08:16:21;16.67;;;15.07;;
15340;SDS011;7770;52.158;5.372;2023-06-22T08:19:07;16.65;;;15.20;;
15340;SDS011;7770;52.158;5.372;2023-06-22T08:21:53;14.73;;;13.23;;
15340;SDS011;7770;52.158;5.372;2023-06-22T08:24:39;16.25;;;14.95;;
15340;SDS011;7770;52.158;5.372;2023-06-22T08:27:25;16.13;;;14.63;;
15340;SDS011;7770;52.158;5.372;2023-06-22T08:30:13;15.73;;;14.32;;
15340;SDS011;7770;52.158;5.372;2023-06-22T08:33:00;14.52;;;13.32;;
15340;SDS011;7770;52.158;5.372;2023-06-22T08:35:46;13.43;;;12.13;;
15340;SDS011;7770;52.158;5.372;2023-06-22T08:38:32;13.82;;;12.73;;
15340;SDS011;7770;52.158;5.372;2023-06-22T08:41:18;14.02;;;12.82;;
15340;SDS011;7770;52.158;5.372;2023-06-22T08:44:04;11.93;;;10.93;;
15340;SDS011;7770;52.158;5.372;2023-06-22T08:46:50;14.43;;;13.07;;
15340;SDS011;7770;52.158;5.372;2023-06-22T08:49:36;10.75;;;9.75;;
15340;SDS011;7770;52.158;5.372;2023-06-22T08:52:22;10.13;;;9.25;;
15340;SDS011;7770;52.158;5.372;2023-06-22T08:55:09;12.02;;;10.95;;
15340;SDS011;7770;52.158;5.372;2023-06-22T08:57:56;13.25;;;12.02;;
15340;SDS011;7770;52.158;5.372;2023-06-22T09:00:42;12.35;;;11.32;;
15340;SDS011;7770;52.158;5.372;2023-06-22T09:03:27;11.57;;;9.35;;
15340;SDS011;7770;52.158;5.372;2023-06-22T09:06:13;8.27;;;7.57;;
15340;SDS011;7770;52.158;5.372;2023-06-22T09:09:01;7.75;;;7.05;;
15340;SDS011;7770;52.158;5.372;2023-06-22T09:11:48;7.72;;;6.90;;
15340;SDS011;7770;52.158;5.372;2023-06-22T09:14:34;10.25;;;9.43;;
15340;SDS011;7770;52.158;5.372;2023-06-22T09:17:20;8.98;;;8.18;;
15340;SDS011;7770;52.158;5.372;2023-06-22T09:20:07;8.50;;;7.80;;
15340;SDS011;7770;52.158;5.372;2023-06-22T09:22:56;11.48;;;10.38;;
15340;SDS011;7770;52.158;5.372;2023-06-22T09:25:42;8.77;;;7.88;;
15340;SDS011;7770;52.158;5.372;2023-06-22T09:28:28;8.20;;;7.45;;
15340;SDS011;7770;52.158;5.372;2023-06-22T09:31:14;8.77;;;7.88;;
15340;SDS011;7770;52.158;5.372;2023-06-22T09:34:01;8.30;;;7.35;;
15340;SDS011;7770;52.158;5.372;2023-06-22T09:36:47;8.50;;;7.70;;
15340;SDS011;7770;52.158;5.372;2023-06-22T09:39:33;10.13;;;9.27;;
15340;SDS011;7770;52.158;5.372;2023-06-22T09:42:19;9.25;;;8.38;;
15340;SDS011;7770;52.158;5.372;2023-06-22T09:45:06;7.55;;;6.85;;
15340;SDS011;7770;52.158;5.372;2023-06-22T09:47:52;8.27;;;7.43;;
15340;SDS011;7770;52.158;5.372;2023-06-22T09:50:38;7.10;;;6.40;;
15340;SDS011;7770;52.158;5.372;2023-06-22T09:53:24;8.15;;;7.35;;
15340;SDS011;7770;52.158;5.372;2023-06-22T09:56:10;8.25;;;7.47;;
15340;SDS011;7770;52.158;5.372;2023-06-22T09:59:00;8.05;;;7.35;;
15340;SDS011;7770;52.158;5.372;2023-06-22T10:01:46;7.47;;;6.78;;
15340;SDS011;7770;52.158;5.372;2023-06-22T10:04:32;9.77;;;7.68;;
15340;SDS011;7770;52.158;5.372;2023-06-22T10:07:19;8.25;;;7.45;;
15340;SDS011;7770;52.158;5.372;2023-06-22T10:10:06;8.43;;;6.78;;
15340;SDS011;7770;52.158;5.372;2023-06-22T10:12:56;9.27;;;7.60;;
15340;SDS011;7770;52.158;5.372;2023-06-22T10:15:43;7.47;;;6.53;;
15340;SDS011;7770;52.158;5.372;2023-06-22T10:18:30;9.43;;;8.40;;
15340;SDS011;7770;52.158;5.372;2023-06-22T10:21:16;8.43;;;7.68;;
15340;SDS011;7770;52.158;5.372;2023-06-22T10:24:02;7.82;;;7.07;;
15340;SDS011;7770;52.158;5.372;2023-06-22T10:26:51;12.02;;;10.77;;
15340;SDS011;7770;52.158;5.372;2023-06-22T10:29:37;11.25;;;10.25;;
15340;SDS011;7770;52.158;5.372;2023-06-22T10:32:23;12.88;;;11.63;;
15340;SDS011;7770;52.158;5.372;2023-06-22T10:35:09;12.93;;;11.35;;
15340;SDS011;7770;52.158;5.372;2023-06-22T10:38:01;16.33;;;14.93;;
15340;SDS011;7770;52.158;5.372;2023-06-22T10:40:47;15.65;;;14.13;;
15340;SDS011;7770;52.158;5.372;2023-06-22T10:43:33;16.75;;;15.15;;
15340;SDS011;7770;52.158;5.372;2023-06-22T10:46:19;16.60;;;15.10;;
15340;SDS011;7770;52.158;5.372;2023-06-22T10:49:05;19.38;;;17.48;;
15340;SDS011;7770;52.158;5.372;2023-06-22T10:51:50;17.83;;;16.05;;
15340;SDS011;7770;52.158;5.372;2023-06-22T10:54:37;17.17;;;15.68;;
15340;SDS011;7770;52.158;5.372;2023-06-22T10:57:23;18.43;;;16.87;;
15340;SDS011;7770;52.158;5.372;2023-06-22T11:00:10;17.58;;;15.95;;
15340;SDS011;7770;52.158;5.372;2023-06-22T11:02:57;16.50;;;15.00;;
15340;SDS011;7770;52.158;5.372;2023-06-22T11:05:43;17.67;;;15.88;;
15340;SDS011;7770;52.158;5.372;2023-06-22T11:08:29;17.08;;;15.55;;
15340;SDS011;7770;52.158;5.372;2023-06-22T11:11:15;16.98;;;15.48;;
15340;SDS011;7770;52.158;5.372;2023-06-22T11:14:03;15.82;;;14.35;;
15340;SDS011;7770;52.158;5.372;2023-06-22T11:16:49;17.08;;;15.48;;
15340;SDS011;7770;52.158;5.372;2023-06-22T11:19:35;16.63;;;14.90;;
15340;SDS011;7770;52.158;5.372;2023-06-22T11:22:21;18.20;;;16.52;;
15340;SDS011;7770;52.158;5.372;2023-06-22T11:25:07;16.45;;;14.95;;
15340;SDS011;7770;52.158;5.372;2023-06-22T11:27:54;16.63;;;15.13;;
15340;SDS011;7770;52.158;5.372;2023-06-22T11:30:40;17.98;;;15.75;;
15340;SDS011;7770;52.158;5.372;2023-06-22T11:33:26;16.30;;;14.70;;
15340;SDS011;7770;52.158;5.372;2023-06-22T11:36:12;16.88;;;15.23;;
15340;SDS011;7770;52.158;5.372;2023-06-22T11:38:59;17.35;;;15.80;;
15340;SDS011;7770;52.158;5.372;2023-06-22T11:41:45;17.15;;;15.70;;
15340;SDS011;7770;52.158;5.372;2023-06-22T11:44:31;17.52;;;15.85;;
15340;SDS011;7770;52.158;5.372;2023-06-22T11:47:17;16.75;;;15.35;;
15340;SDS011;7770;52.158;5.372;2023-06-22T11:50:03;17.23;;;15.75;;
15340;SDS011;7770;52.158;5.372;2023-06-22T11:52:50;17.05;;;15.43;;
15340;SDS011;7770;52.158;5.372;2023-06-22T11:55:38;17.63;;;15.93;;
15340;SDS011;7770;52.158;5.372;2023-06-22T11:58:24;17.98;;;16.38;;
15340;SDS011;7770;52.158;5.372;2023-06-22T12:01:10;17.15;;;15.65;;
15340;SDS011;7770;52.158;5.372;2023-06-22T12:03:56;17.95;;;16.33;;
15340;SDS011;7770;52.158;5.372;2023-06-22T12:06:42;18.60;;;16.98;;
15340;SDS011;7770;52.158;5.372;2023-06-22T12:09:28;16.40;;;14.90;;
15340;SDS011;7770;52.158;5.372;2023-06-22T12:12:14;16.63;;;15.23;;
15340;SDS011;7770;52.158;5.372;2023-06-22T12:15:00;17.40;;;15.80;;
15340;SDS011;7770;52.158;5.372;2023-06-22T12:17:49;15.32;;;13.82;;
15340;SDS011;7770;52.158;5.372;2023-06-22T12:20:35;16.00;;;14.70;;
15340;SDS011;7770;52.158;5.372;2023-06-22T12:23:21;14.35;;;13.05;;
15340;SDS011;7770;52.158;5.372;2023-06-22T12:26:07;14.82;;;13.52;;
15340;SDS011;7770;52.158;5.372;2023-06-22T12:28:53;14.93;;;13.63;;
15340;SDS011;7770;52.158;5.372;2023-06-22T12:31:39;14.57;;;13.35;;
15340;SDS011;7770;52.158;5.372;2023-06-22T12:34:25;16.95;;;15.48;;
15340;SDS011;7770;52.158;5.372;2023-06-22T12:37:11;15.68;;;14.15;;
15340;SDS011;7770;52.158;5.372;2023-06-22T12:39:57;15.70;;;14.15;;
15340;SDS011;7770;52.158;5.372;2023-06-22T12:42:44;14.45;;;13.13;;
15340;SDS011;7770;52.158;5.372;2023-06-22T12:45:30;14.50;;;13.20;;
15340;SDS011;7770;52.158;5.372;2023-06-22T12:48:18;16.10;;;14.50;;
15340;SDS011;7770;52.158;5.372;2023-06-22T12:51:04;15.25;;;13.75;;
15340;SDS011;7770;52.158;5.372;2023-06-22T12:53:50;16.93;;;15.43;;
15340;SDS011;7770;52.158;5.372;2023-06-22T12:56:37;16.70;;;15.40;;
15340;SDS011;7770;52.158;5.372;2023-06-22T12:59:23;15.93;;;14.43;;
15340;SDS011;7770;52.158;5.372;2023-06-22T13:02:09;16.03;;;14.53;;
15340;SDS011;7770;52.158;5.372;2023-06-22T13:04:56;16.07;;;14.53;;
15340;SDS011;7770;52.158;5.372;2023-06-22T13:07:42;16.70;;;15.20;;
15340;SDS011;7770;52.158;5.372;2023-06-22T13:10:28;15.80;;;14.30;;
15340;SDS011;7770;52.158;5.372;2023-06-22T13:13:14;15.93;;;14.63;;
15340;SDS011;7770;52.158;5.372;2023-06-22T13:16:00;17.77;;;15.20;;
15340;SDS011;7770;52.158;5.372;2023-06-22T13:18:46;18.10;;;16.33;;
15340;SDS011;7770;52.158;5.372;2023-06-22T13:21:32;18.83;;;17.00;;
15340;SDS011;7770;52.158;5.372;2023-06-22T13:24:19;20.40;;;18.50;;
15340;SDS011;7770;52.158;5.372;2023-06-22T13:27:05;21.13;;;19.17;;
15340;SDS011;7770;52.158;5.372;2023-06-22T13:29:52;22.03;;;20.07;;
15340;SDS011;7770;52.158;5.372;2023-06-22T13:32:38;21.33;;;19.53;;
15340;SDS011;7770;52.158;5.372;2023-06-22T13:35:26;22.07;;;19.93;;
15340;SDS011;7770;52.158;5.372;2023-06-22T13:38:12;21.30;;;19.50;;
15340;SDS011;7770;52.158;5.372;2023-06-22T13:40:58;21.87;;;19.87;;
15340;SDS011;7770;52.158;5.372;2023-06-22T13:43:45;22.27;;;20.43;;
15340;SDS011;7770;52.158;5.372;2023-06-22T13:46:30;21.93;;;20.10;;
15340;SDS011;7770;52.158;5.372;2023-06-22T13:49:16;23.10;;;21.10;;
15340;SDS011;7770;52.158;5.372;2023-06-22T13:52:03;24.17;;;21.97;;
15340;SDS011;7770;52.158;5.372;2023-06-22T13:54:49;23.50;;;21.43;;
15340;SDS011;7770;52.158;5.372;2023-06-22T13:57:35;25.07;;;22.83;;
15340;SDS011;7770;52.158;5.372;2023-06-22T14:00:21;24.30;;;22.10;;
15340;SDS011;7770;52.158;5.372;2023-06-22T14:03:08;24.83;;;22.70;;
15340;SDS011;7770;52.158;5.372;2023-06-22T14:05:54;25.17;;;22.97;;
15340;SDS011;7770;52.158;5.372;2023-06-22T14:08:41;24.03;;;21.93;;
15340;SDS011;7770;52.158;5.372;2023-06-22T14:11:27;25.47;;;23.17;;
15340;SDS011;7770;52.158;5.372;2023-06-22T14:14:13;25.40;;;23.20;;
15340;SDS011;7770;52.158;5.372;2023-06-22T14:16:59;25.43;;;23.13;;
15340;SDS011;7770;52.158;5.372;2023-06-22T14:19:45;25.47;;;23.27;;
15340;SDS011;7770;52.158;5.372;2023-06-22T14:22:31;26.30;;;24.13;;
15340;SDS011;7770;52.158;5.372;2023-06-22T14:25:17;25.50;;;23.13;;
15340;SDS011;7770;52.158;5.372;2023-06-22T14:28:04;25.63;;;23.50;;
15340;SDS011;7770;52.158;5.372;2023-06-22T14:30:50;26.60;;;24.20;;
15340;SDS011;7770;52.158;5.372;2023-06-22T14:33:35;26.50;;;24.23;;
15340;SDS011;7770;52.158;5.372;2023-06-22T14:36:21;25.83;;;23.70;;
15340;SDS011;7770;52.158;5.372;2023-06-22T14:39:08;27.00;;;24.50;;
15340;SDS011;7770;52.158;5.372;2023-06-22T14:41:54;28.20;;;25.80;;
15340;SDS011;7770;52.158;5.372;2023-06-22T14:44:40;28.13;;;25.83;;
15340;SDS011;7770;52.158;5.372;2023-06-22T14:47:26;28.83;;;26.33;;
15340;SDS011;7770;52.158;5.372;2023-06-22T14:50:12;29.40;;;26.97;;
15340;SDS011;7770;52.158;5.372;2023-06-22T14:52:58;28.13;;;25.63;;
15340;SDS011;7770;52.158;5.372;2023-06-22T14:55:45;28.73;;;26.13;;
15340;SDS011;7770;52.158;5.372;2023-06-22T14:58:31;27.53;;;25.13;;
15340;SDS011;7770;52.158;5.372;2023-06-22T15:01:21;26.90;;;24.53;;
15340;SDS011;7770;52.158;5.372;2023-06-22T15:04:07;25.87;;;23.40;;
15340;SDS011;7770;52.158;5.372;2023-06-22T15:06:53;24.40;;;22.30;;
15340;SDS011;7770;52.158;5.372;2023-06-22T15:09:39;25.27;;;23.07;;
15340;SDS011;7770;52.158;5.372;2023-06-22T15:12:27;26.00;;;23.60;;
15340;SDS011;7770;52.158;5.372;2023-06-22T15:15:13;25.53;;;23.23;;
15340;SDS011;7770;52.158;5.372;2023-06-22T15:17:59;25.50;;;23.33;;
15340;SDS011;7770;52.158;5.372;2023-06-22T15:20:46;26.00;;;23.77;;
15340;SDS011;7770;52.158;5.372;2023-06-22T15:23:33;26.83;;;24.43;;
15340;SDS011;7770;52.158;5.372;2023-06-22T15:26:19;27.93;;;25.33;;
15340;SDS011;7770;52.158;5.372;2023-06-22T15:29:06;29.07;;;26.57;;
15340;SDS011;7770;52.158;5.372;2023-06-22T15:31:52;28.97;;;26.47;;
15340;SDS011;7770;52.158;5.372;2023-06-22T15:34:39;29.63;;;26.87;;
15340;SDS011;7770;52.158;5.372;2023-06-22T15:37:24;30.70;;;28.00;;
15340;SDS011;7770;52.158;5.372;2023-06-22T15:40:11;30.30;;;27.57;;
15340;SDS011;7770;52.158;5.372;2023-06-22T15:42:57;30.57;;;27.97;;
15340;SDS011;7770;52.158;5.372;2023-06-22T15:45:43;30.67;;;27.90;;
15340;SDS011;7770;52.158;5.372;2023-06-22T15:48:29;32.00;;;29.20;;
15340;SDS011;7770;52.158;5.372;2023-06-22T15:51:15;31.70;;;29.00;;
15340;SDS011;7770;52.158;5.372;2023-06-22T15:54:01;30.60;;;27.90;;
15340;SDS011;7770;52.158;5.372;2023-06-22T15:56:47;30.60;;;28.00;;
15340;SDS011;7770;52.158;5.372;2023-06-22T15:59:33;31.33;;;28.63;;
15340;SDS011;7770;52.158;5.372;2023-06-22T16:02:19;32.97;;;30.03;;
15340;SDS011;7770;52.158;5.372;2023-06-22T16:05:06;32.20;;;29.37;;
15340;SDS011;7770;52.158;5.372;2023-06-22T16:07:54;33.23;;;30.23;;
15340;SDS011;7770;52.158;5.372;2023-06-22T16:10:41;34.40;;;31.23;;
15340;SDS011;7770;52.158;5.372;2023-06-22T16:13:27;34.00;;;31.20;;
15340;SDS011;7770;52.158;5.372;2023-06-22T16:16:13;33.80;;;30.80;;
15340;SDS011;7770;52.158;5.372;2023-06-22T16:19:01;34.53;;;31.63;;
15340;SDS011;7770;52.158;5.372;2023-06-22T16:21:47;34.93;;;31.93;;
15340;SDS011;7770;52.158;5.372;2023-06-22T16:24:33;34.87;;;31.93;;
15340;SDS011;7770;52.158;5.372;2023-06-22T16:27:19;33.20;;;30.23;;
15340;SDS011;7770;52.158;5.372;2023-06-22T16:30:08;34.60;;;31.50;;
15340;SDS011;7770;52.158;5.372;2023-06-22T16:32:55;33.63;;;30.73;;
15340;SDS011;7770;52.158;5.372;2023-06-22T16:35:44;33.43;;;30.53;;
15340;SDS011;7770;52.158;5.372;2023-06-22T16:38:30;32.70;;;29.93;;